createdAt,value
2023-03-29T00:02:07.864Z,5.40
2023-03-29T00:04:35.438Z,6.13
2023-03-29T00:07:04.639Z,6.13
2023-03-29T00:09:33.227Z,5.07
2023-03-29T00:12:00.803Z,6.25
2023-03-29T00:14:30.419Z,5.72
2023-03-29T00:16:57.998Z,6.10
2023-03-29T00:19:25.566Z,5.70
2023-03-29T00:21:53.047Z,5.40
2023-03-29T00:24:21.488Z,6.93
2023-03-29T00:26:48.902Z,5.75
2023-03-29T00:29:16.763Z,6.05
2023-03-29T00:31:54.822Z,5.35
2023-03-29T00:34:22.331Z,4.43
2023-03-29T00:36:53.167Z,5.57
2023-03-29T00:39:20.962Z,5.53
2023-03-29T00:41:48.239Z,5.20
2023-03-29T00:44:15.545Z,5.88
2023-03-29T00:46:42.899Z,5.63
2023-03-29T00:49:12.731Z,5.65
2023-03-29T00:51:39.989Z,5.35
2023-03-29T00:54:07.657Z,4.78
2023-03-29T00:56:35.439Z,4.78
2023-03-29T00:59:03.710Z,5.00
2023-03-29T01:01:34.332Z,5.30
2023-03-29T01:04:03.382Z,5.35
2023-03-29T01:06:31.466Z,5.53
2023-03-29T01:08:59.332Z,5.38
2023-03-29T01:11:26.683Z,5.18
2023-03-29T01:13:54.092Z,5.07
2023-03-29T01:16:22.282Z,5.10
2023-03-29T01:18:49.633Z,4.93
2023-03-29T01:21:16.865Z,5.63
2023-03-29T01:23:44.190Z,5.10
2023-03-29T01:26:11.390Z,5.00
2023-03-29T01:28:39.244Z,4.80
2023-03-29T01:31:08.511Z,4.95
2023-03-29T01:33:35.816Z,4.80
2023-03-29T01:36:03.559Z,4.57
2023-03-29T01:38:30.931Z,5.65
2023-03-29T01:40:58.079Z,5.95
2023-03-29T01:43:25.391Z,5.43
2023-03-29T01:45:52.893Z,5.22
2023-03-29T01:48:20.369Z,5.25
2023-03-29T01:50:47.588Z,5.20
2023-03-29T01:53:14.848Z,5.50
2023-03-29T01:55:42.147Z,5.25
2023-03-29T01:58:09.532Z,4.90
2023-03-29T02:00:36.935Z,4.60
2023-03-29T02:03:04.587Z,4.95
2023-03-29T02:05:31.944Z,4.88
2023-03-29T02:08:00.303Z,4.38
2023-03-29T02:10:27.667Z,4.20
2023-03-29T02:12:54.945Z,4.00
2023-03-29T02:15:23.545Z,3.97
2023-03-29T02:17:51.107Z,4.07
2023-03-29T02:20:19.657Z,4.15
2023-03-29T02:22:47.171Z,4.28
2023-03-29T02:25:15.957Z,3.33
2023-03-29T02:27:43.230Z,4.85
2023-03-29T02:30:11.129Z,4.40
2023-03-29T02:32:40.273Z,4.03
2023-03-29T02:35:08.016Z,4.53
2023-03-29T02:37:36.391Z,4.20
2023-03-29T02:40:08.003Z,3.90
2023-03-29T02:42:36.879Z,4.07
2023-03-29T02:45:05.200Z,4.93
2023-03-29T02:47:32.490Z,4.45
2023-03-29T02:50:00.593Z,4.65
2023-03-29T02:52:27.935Z,4.22
2023-03-29T02:54:55.259Z,4.57
2023-03-29T02:57:26.664Z,4.80
2023-03-29T02:59:54.232Z,4.68
2023-03-29T03:02:21.524Z,5.38
2023-03-29T03:04:48.899Z,5.57
2023-03-29T03:07:16.163Z,5.13
2023-03-29T03:09:43.511Z,5.43
2023-03-29T03:12:10.736Z,5.53
2023-03-29T03:14:38.090Z,5.82
2023-03-29T03:17:05.378Z,6.30
2023-03-29T03:19:33.909Z,6.47
2023-03-29T03:22:01.168Z,5.82
2023-03-29T03:24:28.458Z,5.78
2023-03-29T03:26:56.818Z,6.30
2023-03-29T03:29:24.904Z,6.57
2023-03-29T03:32:12.626Z,5.85
2023-03-29T03:35:08.899Z,6.68
2023-03-29T03:37:36.276Z,6.82
2023-03-29T03:40:03.844Z,5.95
2023-03-29T03:42:31.380Z,5.80
2023-03-29T03:44:59.251Z,5.88
2023-03-29T03:47:35.434Z,6.10
2023-03-29T03:50:17.728Z,5.90
2023-03-29T03:52:45.277Z,6.60
2023-03-29T03:55:12.936Z,5.85
2023-03-29T03:57:49.388Z,5.50
2023-03-29T04:00:23.386Z,5.20
2023-03-29T04:03:09.209Z,4.97
2023-03-29T04:05:36.938Z,4.95
2023-03-29T04:08:06.751Z,5.25
2023-03-29T04:11:09.263Z,5.47
2023-03-29T04:13:38.589Z,5.13
2023-03-29T04:16:25.049Z,5.45
2023-03-29T04:18:52.885Z,6.15
2023-03-29T04:21:22.071Z,5.82
2023-03-29T04:23:49.451Z,6.28
2023-03-29T04:26:18.157Z,5.65
2023-03-29T04:28:48.659Z,6.05
2023-03-29T04:31:34.562Z,6.70
2023-03-29T04:34:22.182Z,6.43
2023-03-29T04:36:54.233Z,6.65
2023-03-29T04:39:32.095Z,6.70
2023-03-29T04:42:03.900Z,5.63
2023-03-29T04:44:35.144Z,6.35
2023-03-29T04:47:05.440Z,5.70
2023-03-29T04:49:52.727Z,6.55
2023-03-29T04:52:33.487Z,6.38
2023-03-29T04:55:02.898Z,6.22
2023-03-29T04:57:44.843Z,6.20
2023-03-29T05:00:31.399Z,5.80
2023-03-29T05:03:14.728Z,6.63
2023-03-29T05:06:03.085Z,5.85
2023-03-29T05:08:30.461Z,5.60
2023-03-29T05:11:10.367Z,4.57
2023-03-29T05:13:38.242Z,6.13
2023-03-29T05:16:05.580Z,5.80
2023-03-29T05:18:33.168Z,5.72
2023-03-29T05:21:00.886Z,6.63
2023-03-29T05:23:28.955Z,5.80
2023-03-29T05:26:05.229Z,5.97
2023-03-29T05:28:33.860Z,4.97
2023-03-29T05:31:02.643Z,5.07
2023-03-29T05:33:30.915Z,6.72
2023-03-29T05:35:58.894Z,4.95
2023-03-29T05:38:26.541Z,5.38
2023-03-29T05:40:54.260Z,4.93
2023-03-29T05:43:47.316Z,6.20
2023-03-29T05:46:14.901Z,5.60
2023-03-29T05:48:48.882Z,7.13
2023-03-29T05:51:18.993Z,6.90
2023-03-29T05:53:46.751Z,6.63
2023-03-29T05:56:16.126Z,5.72
2023-03-29T05:58:44.022Z,4.63
2023-03-29T06:01:11.489Z,4.88
2023-03-29T06:04:06.548Z,5.47
2023-03-29T06:06:41.831Z,5.82
2023-03-29T06:09:09.700Z,5.18
2023-03-29T06:11:40.902Z,5.95
2023-03-29T06:14:11.301Z,5.30
2023-03-29T06:16:43.434Z,4.93
2023-03-29T06:19:12.784Z,4.15
2023-03-29T06:21:41.444Z,4.10
2023-03-29T06:24:13.330Z,3.80
2023-03-29T06:26:46.533Z,4.70
2023-03-29T06:29:14.780Z,4.53
2023-03-29T06:31:43.114Z,4.57
2023-03-29T06:34:23.119Z,4.40
2023-03-29T06:37:00.664Z,5.53
2023-03-29T06:39:27.932Z,5.45
2023-03-29T06:42:20.046Z,5.35
2023-03-29T06:47:39.683Z,4.60
2023-03-29T06:50:06.951Z,4.10
2023-03-29T06:52:47.108Z,4.35
2023-03-29T06:55:14.458Z,4.50
2023-03-29T06:57:41.748Z,3.63
2023-03-29T07:00:18.263Z,4.25
2023-03-29T07:03:09.981Z,4.50
2023-03-29T07:05:40.864Z,4.30
2023-03-29T07:08:15.411Z,3.67
2023-03-29T07:11:03.723Z,3.70
2023-03-29T07:13:33.090Z,4.43
2023-03-29T07:16:04.060Z,4.25
2023-03-29T07:18:48.845Z,3.85
2023-03-29T07:21:42.118Z,3.75
2023-03-29T07:24:10.385Z,3.35
2023-03-29T07:26:40.479Z,3.35
2023-03-29T07:29:12.047Z,2.88
2023-03-29T07:31:41.001Z,3.03
2023-03-29T07:34:30.097Z,3.10
2023-03-29T07:36:57.879Z,3.03
2023-03-29T07:39:26.257Z,2.60
2023-03-29T07:42:16.794Z,2.28
2023-03-29T07:44:44.317Z,2.45
2023-03-29T07:47:12.697Z,2.25
2023-03-29T07:49:40.327Z,1.90
2023-03-29T07:52:07.840Z,1.88
2023-03-29T07:54:35.569Z,1.95
2023-03-29T07:57:23.136Z,2.05
2023-03-29T07:59:54.149Z,2.20
2023-03-29T08:02:27.995Z,1.98
2023-03-29T08:04:59.241Z,1.65
2023-03-29T08:07:42.566Z,2.22
2023-03-29T08:10:30.458Z,1.67
2023-03-29T08:12:58.256Z,1.58
2023-03-29T08:15:32.284Z,1.70
2023-03-29T08:18:00.122Z,1.48
2023-03-29T08:20:27.687Z,1.83
2023-03-29T08:23:00.302Z,2.08
2023-03-29T08:25:34.416Z,2.60
2023-03-29T08:28:02.891Z,5.35
2023-03-29T08:30:45.214Z,4.68
2023-03-29T08:33:12.863Z,4.50
2023-03-29T08:35:41.407Z,7.53
2023-03-29T08:38:21.845Z,8.75
2023-03-29T08:40:50.088Z,7.30
2023-03-29T08:43:18.380Z,6.55
2023-03-29T08:46:05.830Z,6.63
2023-03-29T08:48:33.414Z,6.32
2023-03-29T08:51:03.413Z,5.55
2023-03-29T08:53:32.083Z,5.90
2023-03-29T08:56:08.876Z,5.57
2023-03-29T08:58:55.053Z,4.07
2023-03-29T09:01:23.768Z,4.38
2023-03-29T09:03:54.647Z,2.55
2023-03-29T09:06:33.938Z,2.30
2023-03-29T09:09:13.847Z,1.88
2023-03-29T09:11:41.475Z,2.15
2023-03-29T09:14:08.821Z,2.00
2023-03-29T09:16:36.559Z,1.65
2023-03-29T09:19:04.176Z,1.50
2023-03-29T09:21:32.446Z,3.13
2023-03-29T09:24:00.470Z,1.60
2023-03-29T09:26:39.568Z,0.90
2023-03-29T09:29:24.327Z,0.98
2023-03-29T09:31:52.199Z,0.80
2023-03-29T09:34:19.602Z,0.88
2023-03-29T09:37:03.183Z,1.23
2023-03-29T09:39:31.020Z,2.17
2023-03-29T09:42:08.125Z,4.43
2023-03-29T09:44:37.192Z,5.80
2023-03-29T09:47:08.582Z,4.10
2023-03-29T09:49:37.844Z,4.18
2023-03-29T09:52:05.910Z,3.13
2023-03-29T09:54:33.954Z,2.88
2023-03-29T09:57:36.552Z,2.75
2023-03-29T10:00:05.850Z,2.08
2023-03-29T10:02:41.127Z,2.00
2023-03-29T10:05:11.808Z,1.85
2023-03-29T10:07:40.358Z,1.23
2023-03-29T10:10:07.881Z,1.15
2023-03-29T10:12:35.358Z,1.02
2023-03-29T10:15:02.834Z,1.20
2023-03-29T10:17:33.364Z,1.30
2023-03-29T10:20:03.692Z,1.30
2023-03-29T10:22:31.921Z,1.17
2023-03-29T10:24:59.208Z,1.17
2023-03-29T10:27:27.565Z,2.38
2023-03-29T10:29:54.805Z,1.17
2023-03-29T10:32:22.864Z,1.42
2023-03-29T10:34:50.477Z,1.40
2023-03-29T10:37:19.291Z,1.67
2023-03-29T10:39:46.581Z,1.80
2023-03-29T10:42:14.099Z,1.77
2023-03-29T10:44:41.378Z,1.80
2023-03-29T10:47:08.638Z,1.77
2023-03-29T10:49:35.962Z,1.60
2023-03-29T10:52:04.333Z,2.17
2023-03-29T10:54:31.563Z,1.95
2023-03-29T10:56:58.982Z,2.00
2023-03-29T10:59:27.555Z,2.38
2023-03-29T11:01:54.910Z,1.85
2023-03-29T11:04:23.211Z,1.80
2023-03-29T11:06:50.936Z,2.30
2023-03-29T11:09:18.824Z,1.70
2023-03-29T11:11:46.074Z,3.17
2023-03-29T11:14:14.040Z,1.88
2023-03-29T11:16:42.026Z,5.43
2023-03-29T11:19:09.404Z,2.38
2023-03-29T11:21:36.798Z,2.78
2023-03-29T11:24:04.130Z,3.00
2023-03-29T11:26:31.862Z,2.55
2023-03-29T11:28:59.492Z,2.80
2023-03-29T11:31:26.768Z,2.53
2023-03-29T11:33:54.200Z,2.42
2023-03-29T11:36:21.548Z,1.73
2023-03-29T11:38:49.006Z,2.00
2023-03-29T11:41:17.674Z,2.33
2023-03-29T11:43:44.910Z,2.00
2023-03-29T11:46:12.138Z,2.17
2023-03-29T11:48:39.320Z,2.33
2023-03-29T11:51:07.052Z,2.72
2023-03-29T11:53:34.238Z,1.83
2023-03-29T11:56:01.585Z,2.40
2023-03-29T11:58:31.121Z,1.98
2023-03-29T12:00:58.696Z,2.08
2023-03-29T12:03:28.403Z,2.25
2023-03-29T12:05:56.896Z,2.55
2023-03-29T12:08:24.343Z,2.42
2023-03-29T12:10:51.600Z,2.20
2023-03-29T12:13:18.919Z,2.33
2023-03-29T12:15:46.615Z,2.55
2023-03-29T12:18:15.054Z,2.20
2023-03-29T12:20:42.365Z,2.70
2023-03-29T12:23:12.649Z,2.65
2023-03-29T12:25:39.975Z,2.28
2023-03-29T12:28:07.735Z,3.28
2023-03-29T12:30:34.983Z,2.40
2023-03-29T12:33:02.232Z,2.13
2023-03-29T12:35:54.233Z,1.73
2023-03-29T12:38:41.914Z,2.13
2023-03-29T12:41:28.349Z,1.67
2023-03-29T12:44:14.180Z,1.90
2023-03-29T12:47:07.264Z,2.13
2023-03-29T12:49:34.590Z,1.85
2023-03-29T12:52:02.455Z,2.00
2023-03-29T12:54:29.766Z,1.52
2023-03-29T12:56:58.288Z,1.70
2023-03-29T12:59:26.142Z,2.08
2023-03-29T13:01:53.453Z,1.95
2023-03-29T13:04:20.884Z,3.25
2023-03-29T13:06:48.064Z,1.75
2023-03-29T13:09:15.543Z,1.60
2023-03-29T13:11:42.824Z,1.52
2023-03-29T13:14:10.643Z,1.60
2023-03-29T13:16:38.156Z,2.53
2023-03-29T13:19:06.964Z,1.70
2023-03-29T13:21:34.218Z,2.50
2023-03-29T13:24:01.594Z,1.45
2023-03-29T13:26:28.874Z,2.85
2023-03-29T13:28:57.954Z,1.73
2023-03-29T13:31:25.754Z,1.60
2023-03-29T13:33:53.073Z,1.42
2023-03-29T13:36:20.447Z,1.77
2023-03-29T13:38:48.872Z,2.08
2023-03-29T13:41:16.108Z,1.70
2023-03-29T13:43:43.312Z,1.85
2023-03-29T13:46:10.567Z,2.38
2023-03-29T13:48:37.889Z,1.90
2023-03-29T13:51:08.370Z,1.92
2023-03-29T13:53:36.298Z,1.77
2023-03-29T13:56:03.843Z,1.75
2023-03-29T13:58:31.445Z,1.65
2023-03-29T14:00:59.729Z,2.05
2023-03-29T14:03:30.003Z,2.65
2023-03-29T14:05:57.466Z,1.60
2023-03-29T14:08:27.434Z,2.30
2023-03-29T14:10:54.782Z,2.17
2023-03-29T14:13:22.345Z,3.63
2023-03-29T14:15:49.648Z,1.67
2023-03-29T14:18:16.990Z,1.98
2023-03-29T14:20:44.828Z,1.85
2023-03-29T14:23:13.333Z,1.60
2023-03-29T14:25:42.395Z,1.40
2023-03-29T14:28:09.570Z,2.13
2023-03-29T14:30:36.919Z,1.63
2023-03-29T14:33:05.305Z,1.55
2023-03-29T14:35:33.206Z,1.50
2023-03-29T14:38:00.839Z,1.33
2023-03-29T14:40:28.162Z,2.15
2023-03-29T14:42:55.645Z,1.83
2023-03-29T14:45:23.496Z,1.40
2023-03-29T14:47:50.880Z,1.42
2023-03-29T14:50:18.222Z,1.70
2023-03-29T14:52:47.255Z,1.80
2023-03-29T14:55:16.320Z,1.75
2023-03-29T14:57:43.811Z,1.50
2023-03-29T15:00:13.516Z,1.77
2023-03-29T15:02:41.099Z,1.90
2023-03-29T15:05:08.356Z,1.98
2023-03-29T15:07:36.574Z,1.73
2023-03-29T15:10:05.228Z,1.77
2023-03-29T15:12:32.532Z,2.30
2023-03-29T15:14:59.787Z,1.63
2023-03-29T15:17:36.014Z,2.38
2023-03-29T15:20:11.607Z,1.88
2023-03-29T15:22:39.129Z,1.70
2023-03-29T15:25:06.443Z,1.83
2023-03-29T15:27:33.804Z,1.25
2023-03-29T15:30:04.281Z,1.50
2023-03-29T15:32:31.718Z,4.50
2023-03-29T15:34:59.245Z,1.67
2023-03-29T15:37:26.605Z,1.77
2023-03-29T15:39:53.818Z,2.55
2023-03-29T15:42:21.143Z,1.20
2023-03-29T15:44:48.424Z,1.63
2023-03-29T15:47:15.672Z,2.63
2023-03-29T15:49:42.977Z,1.58
2023-03-29T15:52:10.218Z,2.03
2023-03-29T15:54:37.495Z,1.75
2023-03-29T15:57:04.854Z,2.60
2023-03-29T15:59:32.121Z,2.03
2023-03-29T16:02:00.216Z,1.88
2023-03-29T16:04:27.473Z,1.83
2023-03-29T16:06:54.724Z,2.15
2023-03-29T16:09:21.979Z,2.15
2023-03-29T16:11:49.213Z,1.60
2023-03-29T16:14:16.651Z,1.85
2023-03-29T16:16:43.896Z,2.28
2023-03-29T16:19:11.533Z,1.75
2023-03-29T16:21:38.822Z,2.17
2023-03-29T16:24:07.374Z,1.67
2023-03-29T16:26:34.681Z,1.98
2023-03-29T16:29:01.976Z,2.45
2023-03-29T16:31:29.386Z,2.35
2023-03-29T16:33:56.666Z,2.50
2023-03-29T16:36:24.127Z,3.28
2023-03-29T16:38:51.738Z,3.08
2023-03-29T16:41:19.071Z,2.45
2023-03-29T16:43:46.338Z,1.98
2023-03-29T16:46:13.874Z,1.45
2023-03-29T16:48:41.441Z,1.92
2023-03-29T16:51:08.792Z,2.75
2023-03-29T16:53:36.053Z,3.92
2023-03-29T16:56:03.516Z,2.00
2023-03-29T16:58:31.071Z,2.20
2023-03-29T17:00:58.557Z,2.38
2023-03-29T17:03:25.868Z,2.47
2023-03-29T17:05:53.317Z,1.90
2023-03-29T17:08:20.830Z,1.77
2023-03-29T17:10:48.232Z,1.98
2023-03-29T17:13:15.506Z,2.42
2023-03-29T17:15:44.322Z,1.75
2023-03-29T17:18:12.389Z,3.50
2023-03-29T17:20:40.618Z,3.05
2023-03-29T17:23:09.020Z,1.77
2023-03-29T17:25:36.390Z,2.63
2023-03-29T17:28:03.707Z,1.98
2023-03-29T17:30:31.625Z,1.83
2023-03-29T17:32:59.077Z,2.92
2023-03-29T17:35:26.606Z,3.03
2023-03-29T17:37:54.923Z,2.35
2023-03-29T17:40:22.576Z,2.60
2023-03-29T17:42:52.361Z,2.67
2023-03-29T17:45:19.644Z,2.42
2023-03-29T17:47:47.017Z,2.33
2023-03-29T17:50:14.352Z,3.47
2023-03-29T17:52:41.615Z,3.42
2023-03-29T17:55:11.275Z,2.50
2023-03-29T17:57:39.037Z,4.25
2023-03-29T18:00:06.403Z,1.75
2023-03-29T18:02:33.753Z,2.97
2023-03-29T18:05:02.000Z,3.40
2023-03-29T18:07:29.282Z,2.60
2023-03-29T18:09:56.877Z,2.78
2023-03-29T18:12:24.134Z,1.92
2023-03-29T18:14:51.714Z,2.55
2023-03-29T18:17:19.117Z,3.05
2023-03-29T18:19:46.513Z,2.90
2023-03-29T18:22:13.696Z,3.67
2023-03-29T18:24:41.029Z,3.53
2023-03-29T18:27:08.239Z,3.70
2023-03-29T18:29:35.857Z,2.75
2023-03-29T18:32:03.371Z,2.75
2023-03-29T18:34:30.924Z,2.80
2023-03-29T18:36:58.308Z,4.55
2023-03-29T18:39:25.870Z,3.28
2023-03-29T18:41:53.192Z,2.08
2023-03-29T18:44:21.994Z,3.38
2023-03-29T18:46:49.252Z,2.35
2023-03-29T18:49:16.504Z,2.45
2023-03-29T18:51:44.208Z,2.35
2023-03-29T18:54:11.666Z,2.85
2023-03-29T18:56:38.954Z,2.10
2023-03-29T18:59:06.983Z,2.67
2023-03-29T19:01:34.706Z,2.60
2023-03-29T19:04:02.259Z,2.72
2023-03-29T19:06:29.627Z,3.97
2023-03-29T19:08:59.774Z,1.92
2023-03-29T19:11:28.918Z,2.58
2023-03-29T19:13:56.704Z,2.38
2023-03-29T19:16:24.165Z,2.08
2023-03-29T19:18:51.790Z,2.45
2023-03-29T19:21:19.290Z,2.72
2023-03-29T19:23:49.348Z,1.90
2023-03-29T19:26:16.862Z,1.92
2023-03-29T19:28:44.084Z,3.00
2023-03-29T19:31:12.213Z,2.88
2023-03-29T19:33:40.925Z,2.85
2023-03-29T19:36:08.294Z,1.77
2023-03-29T19:38:36.388Z,3.38
2023-03-29T19:41:03.724Z,2.95
2023-03-29T19:43:31.934Z,2.53
2023-03-29T19:45:59.469Z,3.50
2023-03-29T19:48:26.864Z,2.80
2023-03-29T19:50:54.120Z,3.08
2023-03-29T19:53:23.251Z,2.22
2023-03-29T19:55:50.652Z,2.33
2023-03-29T19:58:18.199Z,2.75
2023-03-29T20:00:45.492Z,2.67
2023-03-29T20:03:14.075Z,2.47
2023-03-29T20:05:42.453Z,3.00
2023-03-29T20:08:09.772Z,2.67
2023-03-29T20:10:37.035Z,3.47
2023-03-29T20:13:06.276Z,3.72
2023-03-29T20:15:33.653Z,2.65
2023-03-29T20:18:01.060Z,3.15
2023-03-29T20:20:29.978Z,3.60
2023-03-29T20:23:04.687Z,3.22
2023-03-29T20:25:32.726Z,4.13
2023-03-29T20:28:00.795Z,3.85
2023-03-29T20:30:28.120Z,2.72
2023-03-29T20:32:55.802Z,3.08
2023-03-29T20:35:23.248Z,3.10
2023-03-29T20:37:50.682Z,2.00
2023-03-29T20:40:18.110Z,1.58
2023-03-29T20:42:46.434Z,1.85
2023-03-29T20:45:18.777Z,2.30
2023-03-29T20:47:50.534Z,1.42
2023-03-29T20:50:18.948Z,3.15
2023-03-29T20:52:46.766Z,2.05
2023-03-29T20:55:24.610Z,2.67
2023-03-29T20:57:54.076Z,1.90
2023-03-29T21:00:22.579Z,2.20
2023-03-29T21:02:50.046Z,2.10
2023-03-29T21:05:17.444Z,2.20
2023-03-29T21:07:45.521Z,2.40
2023-03-29T21:10:13.867Z,1.80
2023-03-29T21:12:41.174Z,2.20
2023-03-29T21:15:08.667Z,2.25
2023-03-29T21:17:36.370Z,2.40
2023-03-29T21:20:07.592Z,2.97
2023-03-29T21:22:35.165Z,2.55
2023-03-29T21:25:02.463Z,2.92
2023-03-29T21:27:29.716Z,1.85
2023-03-29T21:29:56.924Z,2.35
2023-03-29T21:32:24.274Z,2.95
2023-03-29T21:34:51.516Z,2.70
2023-03-29T21:37:19.013Z,3.00
2023-03-29T21:39:46.246Z,2.10
2023-03-29T21:42:13.516Z,2.20
2023-03-29T21:44:40.943Z,2.60
2023-03-29T21:47:08.499Z,3.05
2023-03-29T21:49:35.763Z,2.97
2023-03-29T21:52:04.038Z,2.40
2023-03-29T21:54:31.336Z,3.00
2023-03-29T21:56:58.589Z,2.20
2023-03-29T21:59:26.001Z,2.60
2023-03-29T22:01:54.408Z,2.55
2023-03-29T22:04:35.374Z,2.47
2023-03-29T22:07:04.162Z,2.67
2023-03-29T22:09:31.447Z,2.85
2023-03-29T22:11:59.937Z,2.92
2023-03-29T22:14:29.445Z,2.85
2023-03-29T22:16:57.468Z,4.40
2023-03-29T22:19:24.714Z,2.75
2023-03-29T22:21:54.400Z,2.60
2023-03-29T22:24:21.603Z,2.83
2023-03-29T22:26:49.913Z,2.80
2023-03-29T22:29:17.206Z,2.55
2023-03-29T22:31:44.447Z,2.85
2023-03-29T22:34:11.932Z,3.40
2023-03-29T22:36:39.176Z,3.10
2023-03-29T22:39:06.711Z,2.50
2023-03-29T22:41:34.046Z,3.30
2023-03-29T22:44:01.384Z,2.67
2023-03-29T22:46:28.666Z,3.15
2023-03-29T22:48:56.052Z,2.60
2023-03-29T22:51:23.259Z,2.90
2023-03-29T22:53:50.818Z,2.25
2023-03-29T22:56:18.208Z,2.50
2023-03-29T22:58:45.837Z,2.13
2023-03-29T23:01:13.216Z,2.08
2023-03-29T23:03:40.771Z,2.13
2023-03-29T23:06:07.928Z,2.10
2023-03-29T23:08:35.388Z,2.00
2023-03-29T23:11:02.885Z,3.58
2023-03-29T23:13:30.436Z,2.50
2023-03-29T23:15:59.222Z,3.03
2023-03-29T23:18:26.890Z,2.17
2023-03-29T23:20:54.813Z,2.72
2023-03-29T23:23:22.114Z,2.17
2023-03-29T23:25:49.296Z,3.30
2023-03-29T23:28:17.004Z,2.70
2023-03-29T23:30:44.275Z,3.22
2023-03-29T23:33:11.816Z,2.67
2023-03-29T23:35:39.123Z,2.28
2023-03-29T23:38:08.574Z,3.55
2023-03-29T23:40:35.875Z,2.53
2023-03-29T23:43:04.236Z,3.40
2023-03-29T23:45:31.812Z,3.58
2023-03-29T23:47:59.213Z,3.40
2023-03-29T23:50:28.802Z,2.83
2023-03-29T23:52:56.369Z,3.33
2023-03-29T23:55:23.703Z,3.75
2023-03-29T23:57:54.000Z,4.10
